Isle of Canna, United Kingdom
Current Conditions -  °F | °C
As of 3:50 PM on Friday 24 Oct 2014 (Local Time) from EGPU Reporting Station
Few Clouds Few Clouds  
Wind Chill: 11°   Ceiling: Unl
Heat Index: 11°   Visibility: 6mi
Dew Point:   Wind: 25mph
Humidity: 76%   Direction: 240°WSW
Pressure: 29.59"   Gusts: NA
Location:  57.06°N, 6.5°W
Report Text: EGPU 241450Z AUTO 24022KT 210V270 9999 FEW025/// 11/07 Q1002
Loading
Personal Weather Stations






























Interactive Weather Map
Tropical Storm Tracking
New forecast layout! Learn more

10-Day Weather Forecast

Advertisements
Track Severe Weather on mobile